Time;durP1;ratioP1;P1;durP2;ratioP2;P2;SDS_P1;SDS_P2;PMS_P1;PMS_P2;Temp;Humidity;BMP_temperature;BMP_pressure;BME280_temperature;BME280_humidity;BME280_pressure;Samples;Min_cycle;Max_cycle;Signal;HPM_P1;HPM_P2
2023/06/17 00:00:23;;;;;;;5.00;1.27;;;;;;;16.36;91.48;93264.72;4929401;29;20228;-82
2023/06/17 00:02:50;;;;;;;1.73;0.80;;;;;;;16.35;90.57;93267.78;4928670;29;20028;-83
2023/06/17 00:05:15;;;;;;;2.38;0.93;;;;;;;16.32;89.63;93265.81;4928836;29;20040;-83
2023/06/17 00:07:41;;;;;;;1.52;0.82;;;;;;;16.24;89.47;93268.41;4928881;29;20241;-83
2023/06/17 00:10:08;;;;;;;1.40;0.85;;;;;;;16.22;89.10;93269.91;4928983;29;20028;-82
2023/06/17 00:12:36;;;;;;;2.70;0.63;;;;;;;16.12;89.54;93262.44;4928390;29;20028;-82
2023/06/17 00:15:05;;;;;;;4.85;0.70;;;;;;;16.15;89.36;93264.44;4928584;29;20091;-82
2023/06/17 00:17:32;;;;;;;2.08;0.88;;;;;;;16.10;89.68;93262.84;4928195;29;20207;-82
2023/06/17 00:19:58;;;;;;;3.20;1.10;;;;;;;16.03;89.42;93257.34;4928557;29;20024;-83
2023/06/17 00:22:33;;;;;;;4.88;0.82;;;;;;;15.96;90.11;93247.28;4911768;29;20024;-83
2023/06/17 00:24:59;;;;;;;1.65;0.80;;;;;;;16.02;89.98;93251.19;4911791;29;20024;-84
2023/06/17 00:27:33;;;;;;;2.83;1.08;;;;;;;16.01;89.80;93257.69;4928599;29;20028;-83
2023/06/17 00:29:59;;;;;;;5.60;1.05;;;;;;;16.00;90.02;93250.78;4928394;29;20043;-83
2023/06/17 00:32:27;;;;;;;1.20;0.65;;;;;;;16.00;89.36;93250.03;4928627;29;20106;-84
2023/06/17 00:34:53;;;;;;;4.63;1.10;;;;;;;15.89;89.12;93243.69;4928090;29;20095;-84
2023/06/17 00:37:18;;;;;;;4.40;0.75;;;;;;;15.77;89.52;93245.47;4911138;29;20044;-84
2023/06/17 00:39:44;;;;;;;1.55;0.70;;;;;;;15.68;89.84;93255.63;4928507;29;20099;-84
2023/06/17 00:42:11;;;;;;;1.67;0.85;;;;;;;15.70;89.77;93264.09;4928196;29;20099;-84
2023/06/17 00:44:39;;;;;;;4.00;1.77;;;;;;;15.67;89.87;93253.31;4928506;29;20023;-84
2023/06/17 00:47:06;;;;;;;1.85;0.90;;;;;;;15.57;90.70;93266.22;4913401;29;20024;-85
2023/06/17 00:49:35;;;;;;;6.30;1.15;;;;;;;15.48;90.87;93256.84;4928289;29;20028;-84
2023/06/17 00:52:04;;;;;;;2.00;1.00;;;;;;;15.37;91.09;93253.97;4911601;29;20106;-84
2023/06/17 00:54:42;;;;;;;3.35;1.00;;;;;;;15.38;91.02;93255.50;4928113;29;20024;-84
2023/06/17 00:57:09;;;;;;;1.60;1.00;;;;;;;15.17;92.02;93261.28;4911164;29;20079;-85
2023/06/17 00:59:37;;;;;;;8.07;1.27;;;;;;;15.18;92.62;93260.16;4928109;29;20028;-84
2023/06/17 01:02:03;;;;;;;1.25;0.90;;;;;;;15.21;92.54;93256.75;4928317;29;20254;-85
2023/06/17 01:04:31;;;;;;;3.97;1.00;;;;;;;15.19;93.10;93250.97;4928025;29;20023;-85
2023/06/17 01:07:40;;;;;;;3.33;1.13;;;;;;;15.22;92.67;93245.69;4927931;29;20035;-85
2023/06/17 01:10:21;;;;;;;3.92;1.10;;;;;;;15.18;93.19;93252.09;4927791;29;20051;-85
2023/06/17 01:12:48;;;;;;;2.13;1.15;;;;;;;15.17;93.45;93248.63;4927663;29;20042;-84
2023/06/17 01:15:16;;;;;;;5.93;1.30;;;;;;;15.14;93.11;93254.75;4927928;29;20023;-85
2023/06/17 01:17:43;;;;;;;3.83;1.77;;;;;;;15.18;93.29;93250.22;4927933;29;20342;-85
2023/06/17 01:20:12;;;;;;;4.80;1.52;;;;;;;15.12;93.46;93248.16;4927898;29;20263;-85
2023/06/17 01:22:38;;;;;;;2.80;1.52;;;;;;;15.10;93.74;93245.03;4927926;29;20028;-85
2023/06/17 01:25:05;;;;;;;4.82;1.40;;;;;;;15.13;93.82;93252.41;4927915;29;20027;-85
2023/06/17 01:27:33;;;;;;;1.80;1.20;;;;;;;15.08;94.29;93240.03;4911066;29;20020;-85
2023/06/17 01:29:59;;;;;;;1.70;1.10;;;;;;;15.05;94.51;93241.53;4927762;29;20023;-85
2023/06/17 01:32:24;;;;;;;2.00;1.17;;;;;;;15.02;94.27;93244.94;4927477;29;20055;-85
2023/06/17 01:35:12;;;;;;;2.00;1.30;;;;;;;15.10;94.12;93237.78;4927279;29;20024;-86
2023/06/17 01:37:37;;;;;;;1.80;1.13;;;;;;;15.11;94.38;93244.69;4927397;29;20051;-86
2023/06/17 01:40:06;;;;;;;4.07;1.33;;;;;;;15.15;94.41;93239.41;4927542;29;20051;-85
2023/06/17 01:42:35;;;;;;;3.47;1.15;;;;;;;15.10;93.94;93232.44;4912627;29;20031;-85
2023/06/17 01:45:04;;;;;;;3.20;1.30;;;;;;;15.03;94.28;93233.06;4927246;29;20039;-86
2023/06/17 01:47:30;;;;;;;2.45;1.30;;;;;;;14.97;95.25;93231.78;4926369;29;20234;-85
2023/06/17 01:49:58;;;;;;;1.45;1.00;;;;;;;14.92;95.53;93233.97;4911133;29;20098;-85
2023/06/17 01:52:24;;;;;;;2.90;1.25;;;;;;;14.91;95.25;93227.06;4910408;29;20035;-85
2023/06/17 01:54:49;;;;;;;2.30;1.40;;;;;;;14.95;95.43;93234.06;4910530;29;20024;-85
2023/06/17 01:57:15;;;;;;;2.97;1.20;;;;;;;14.93;96.05;93230.94;4927707;29;20342;-83
2023/06/17 01:59:40;;;;;;;2.60;1.35;;;;;;;14.90;95.71;93229.00;4910614;29;20232;-85
2023/06/17 02:02:06;;;;;;;2.22;1.33;;;;;;;15.00;96.07;93227.59;4927472;29;20035;-84
2023/06/17 02:04:31;;;;;;;2.30;1.13;;;;;;;14.93;95.87;93228.25;4909929;29;20071;-83
2023/06/17 02:06:57;;;;;;;3.75;1.52;;;;;;;14.98;96.24;93229.88;4910009;29;20099;-83
2023/06/17 02:09:22;;;;;;;4.10;1.30;;;;;;;14.98;96.15;93230.69;4927176;29;20199;-83
2023/06/17 02:11:48;;;;;;;1.92;1.30;;;;;;;14.93;96.26;93239.00;4927250;29;20043;-83
2023/06/17 02:14:13;;;;;;;2.50;1.20;;;;;;;14.94;96.53;93240.56;4927278;29;20032;-83
2023/06/17 02:16:44;;;;;;;2.40;1.58;;;;;;;14.95;97.29;93226.00;4927251;29;20051;-83
2023/06/17 02:19:09;;;;;;;2.97;1.50;;;;;;;14.98;97.43;93230.69;4927063;29;20222;-83
2023/06/17 02:21:35;;;;;;;4.50;1.35;;;;;;;15.01;97.12;93231.84;4910527;29;20091;-83
2023/06/17 02:24:00;;;;;;;2.58;1.55;;;;;;;15.03;97.36;93230.38;4928796;29;20039;-84
2023/06/17 02:26:26;;;;;;;2.97;1.35;;;;;;;15.01;96.17;93229.19;4928074;29;20027;-84
2023/06/17 02:28:51;;;;;;;6.65;1.50;;;;;;;15.01;96.62;93235.31;4910416;29;20302;-84
2023/06/17 02:31:16;;;;;;;4.65;1.52;;;;;;;14.96;96.50;93229.44;4927002;29;20040;-85
2023/06/17 02:33:42;;;;;;;2.05;1.10;;;;;;;14.96;96.93;93235.63;4926390;29;20391;-84
2023/06/17 02:36:07;;;;;;;1.48;1.00;;;;;;;14.90;97.18;93231.69;4926804;29;20024;-84
2023/06/17 02:38:33;;;;;;;3.60;1.30;;;;;;;14.81;97.43;93226.50;4927018;29;20024;-84
2023/06/17 02:40:59;;;;;;;3.20;1.50;;;;;;;14.84;97.39;93235.78;4910255;29;20047;-84
2023/06/17 02:43:24;;;;;;;2.33;1.33;;;;;;;14.79;98.10;93228.00;4926882;29;20031;-84
2023/06/17 02:45:49;;;;;;;4.18;1.40;;;;;;;14.76;98.66;93234.09;4926749;29;20020;-85
2023/06/17 02:48:15;;;;;;;3.55;1.40;;;;;;;14.71;99.16;93239.72;4926986;29;20072;-86
2023/06/17 02:50:41;;;;;;;3.90;1.25;;;;;;;14.73;99.23;93229.41;4927044;29;20224;-85
2023/06/17 02:53:07;;;;;;;4.35;1.30;;;;;;;14.79;99.03;93239.50;4927174;29;20024;-84
2023/06/17 02:55:33;;;;;;;2.92;1.80;;;;;;;14.76;98.71;93232.19;4926751;29;20020;-84
2023/06/17 02:57:58;;;;;;;3.70;1.27;;;;;;;14.78;98.43;93231.81;4927641;29;20031;-84
2023/06/17 03:00:24;;;;;;;2.95;1.50;;;;;;;14.67;98.70;93231.59;4930488;29;20027;-84
2023/06/17 03:02:50;;;;;;;2.60;1.65;;;;;;;14.67;98.82;93242.34;4913591;29;20361;-84
2023/06/17 03:05:16;;;;;;;2.45;1.17;;;;;;;14.72;98.53;93243.97;4930227;29;20048;-84
2023/06/17 03:07:42;;;;;;;4.03;1.10;;;;;;;14.64;98.29;93248.41;4929787;29;20039;-83
2023/06/17 03:10:08;;;;;;;2.35;1.05;;;;;;;14.65;98.62;93241.91;4913565;29;20091;-84
2023/06/17 03:12:34;;;;;;;2.88;1.27;;;;;;;14.66;98.89;93250.75;4930177;29;20031;-84
2023/06/17 03:15:00;;;;;;;1.70;1.10;;;;;;;14.62;98.82;93246.09;4929851;29;20024;-84
2023/06/17 03:17:27;;;;;;;3.92;0.95;;;;;;;14.67;98.71;93253.06;4929446;29;20020;-83
2023/06/17 03:19:53;;;;;;;2.47;1.35;;;;;;;14.64;98.79;93259.91;4929592;29;20025;-84
2023/06/17 03:22:18;;;;;;;1.52;1.00;;;;;;;14.61;98.91;93257.94;4929865;29;20044;-84
2023/06/17 03:24:44;;;;;;;4.88;1.35;;;;;;;14.62;98.45;93251.44;4929811;29;20020;-84
2023/06/17 03:27:10;;;;;;;3.85;1.23;;;;;;;14.63;98.96;93263.75;4912493;29;20068;-85
2023/06/17 03:29:35;;;;;;;2.15;1.33;;;;;;;14.58;99.09;93255.97;4929721;29;20031;-86
2023/06/17 03:32:01;;;;;;;2.95;1.30;;;;;;;14.58;98.88;93261.31;4928548;29;20199;-85
2023/06/17 03:34:27;;;;;;;1.85;1.17;;;;;;;14.55;99.14;93267.38;4928777;29;20027;-86
2023/06/17 03:36:52;;;;;;;2.30;1.35;;;;;;;14.59;99.86;93270.94;4928336;29;20051;-84
2023/06/17 03:39:18;;;;;;;2.97;1.13;;;;;;;14.58;99.08;93272.06;4929171;29;20195;-84
2023/06/17 03:41:43;;;;;;;2.00;1.20;;;;;;;14.61;99.11;93271.34;4929089;29;20075;-84
2023/06/17 03:44:09;;;;;;;2.17;1.42;;;;;;;14.63;98.79;93282.50;4929429;29;20067;-84
2023/06/17 03:46:34;;;;;;;2.15;1.33;;;;;;;14.59;99.04;93270.94;4913093;29;20042;-84
2023/06/17 03:49:00;;;;;;;3.65;1.30;;;;;;;14.62;99.44;93272.91;4929778;29;20095;-84
2023/06/17 03:51:25;;;;;;;2.88;1.50;;;;;;;14.66;99.21;93277.56;4929594;29;20031;-84
2023/06/17 03:53:51;;;;;;;1.48;1.08;;;;;;;14.67;99.35;93276.44;4912697;29;20060;-85
2023/06/17 03:56:16;;;;;;;2.92;1.42;;;;;;;14.60;98.89;93277.84;4929055;29;20314;-85
2023/06/17 03:58:42;;;;;;;1.98;1.20;;;;;;;14.66;99.00;93285.63;4929174;29;20028;-85
2023/06/17 04:01:07;;;;;;;2.88;1.10;;;;;;;14.63;98.17;93292.44;4928812;29;20059;-86
2023/06/17 04:03:34;;;;;;;2.72;1.33;;;;;;;14.63;98.36;93287.88;4928377;29;20032;-83
2023/06/17 04:06:00;;;;;;;2.88;1.20;;;;;;;14.66;98.37;93296.34;4928843;29;20096;-84
2023/06/17 04:08:27;;;;;;;1.63;1.10;;;;;;;14.68;98.46;93292.19;4929313;29;20024;-84
2023/06/17 04:10:52;;;;;;;1.52;0.98;;;;;;;14.71;98.13;93296.06;4928307;29;20028;-84
2023/06/17 04:13:18;;;;;;;1.55;1.05;;;;;;;14.71;98.58;93296.06;4928809;29;20079;-84
2023/06/17 04:15:45;;;;;;;2.03;1.13;;;;;;;14.75;98.35;93299.59;4928661;29;20032;-84
2023/06/17 04:18:11;;;;;;;1.48;0.98;;;;;;;14.78;98.13;93296.22;4928780;29;20060;-84
2023/06/17 04:20:37;;;;;;;1.25;0.75;;;;;;;14.78;97.44;93302.34;4929066;29;20082;-82
2023/06/17 04:23:02;;;;;;;1.20;0.88;;;;;;;14.83;96.63;93295.91;4911580;29;20028;-83
2023/06/17 04:25:32;;;;;;;1.42;0.70;;;;;;;14.84;96.57;93302.84;4928071;29;20035;-83
2023/06/17 04:28:01;;;;;;;1.67;0.85;;;;;;;14.84;96.61;93295.56;4928377;29;20020;-83
2023/06/17 04:30:27;;;;;;;2.17;1.00;;;;;;;14.87;97.03;93306.72;4928737;29;20265;-83
2023/06/17 04:32:54;;;;;;;2.67;1.00;;;;;;;14.87;96.82;93309.41;4911823;29;20032;-84
2023/06/17 04:35:20;;;;;;;2.58;0.90;;;;;;;14.89;96.21;93305.22;4928261;29;20036;-84
2023/06/17 04:37:53;;;;;;;2.30;1.10;;;;;;;14.92;95.92;93309.91;4911512;29;20326;-83
2023/06/17 04:40:19;;;;;;;1.52;0.93;;;;;;;14.96;96.15;93313.44;4928497;29;20035;-83
2023/06/17 04:42:45;;;;;;;1.20;0.70;;;;;;;14.91;96.35;93316.38;4911944;29;20080;-81
2023/06/17 04:45:10;;;;;;;3.75;0.77;;;;;;;14.94;96.67;93314.91;4929482;29;20036;-83
2023/06/17 04:47:36;;;;;;;2.58;1.00;;;;;;;14.97;96.51;93320.34;4929218;29;20215;-83
2023/06/17 04:50:03;;;;;;;1.92;0.70;;;;;;;14.91;96.83;93316.38;4928952;29;20028;-82
2023/06/17 04:52:30;;;;;;;1.50;0.88;;;;;;;14.90;97.07;93316.72;4928311;29;20024;-83
2023/06/17 04:54:55;;;;;;;2.55;0.93;;;;;;;14.90;97.66;93309.47;4927439;29;20222;-83
2023/06/17 04:57:21;;;;;;;1.73;0.70;;;;;;;14.89;97.00;93310.59;4928329;29;20032;-83
2023/06/17 04:59:46;;;;;;;1.63;0.88;;;;;;;14.92;97.61;93315.28;4928062;29;20382;-83
2023/06/17 05:02:13;;;;;;;5.38;1.23;;;;;;;14.94;97.74;93310.34;4928400;29;20030;-84
2023/06/17 05:04:38;;;;;;;4.55;1.15;;;;;;;14.97;97.50;93316.88;4928912;29;20028;-85
2023/06/17 05:07:04;;;;;;;4.03;1.67;;;;;;;14.93;97.71;93311.44;4911625;29;20059;-84
2023/06/17 05:09:29;;;;;;;2.42;0.98;;;;;;;14.89;97.83;93313.28;4928625;29;20039;-85
2023/06/17 05:11:55;;;;;;;2.22;0.60;;;;;;;14.88;98.14;93322.47;4928303;29;20056;-85
2023/06/17 05:14:21;;;;;;;2.58;0.95;;;;;;;14.87;97.92;93323.59;4910944;29;20293;-85
2023/06/17 05:16:46;;;;;;;3.83;1.20;;;;;;;14.84;97.86;93321.63;4927815;29;20035;-83
2023/06/17 05:19:11;;;;;;;1.58;0.95;;;;;;;14.88;98.50;93327.03;4928201;29;20032;-83
2023/06/17 05:21:37;;;;;;;3.15;0.93;;;;;;;14.77;97.54;93316.88;4926931;29;20024;-84
2023/06/17 05:24:02;;;;;;;1.30;0.68;;;;;;;14.81;98.19;93327.69;4927625;29;20099;-84
2023/06/17 05:26:28;;;;;;;1.40;0.90;;;;;;;14.78;99.02;93326.50;4927585;29;20028;-84
2023/06/17 05:28:57;;;;;;;6.93;0.88;;;;;;;14.78;99.08;93325.72;4928813;29;20016;-83
2023/06/17 05:31:22;;;;;;;1.40;0.80;;;;;;;14.78;99.05;93344.50;4928135;29;20066;-84
2023/06/17 05:33:48;;;;;;;1.65;0.70;;;;;;;14.75;99.17;93329.84;4928268;29;20024;-84
2023/06/17 05:36:14;;;;;;;1.55;0.70;;;;;;;14.67;98.65;93332.75;4910844;29;20179;-84
2023/06/17 05:38:39;;;;;;;2.70;0.63;;;;;;;14.55;98.94;93331.72;4928158;29;20103;-84
2023/06/17 05:41:05;;;;;;;1.77;0.68;;;;;;;14.57;99.66;93334.88;4927154;29;20019;-82
2023/06/17 05:43:31;;;;;;;2.08;0.70;;;;;;;14.53;99.84;93333.19;4927882;29;20027;-84
2023/06/17 05:45:56;;;;;;;2.30;0.77;;;;;;;14.53;100.00;93331.31;4927108;29;20023;-82
2023/06/17 05:48:21;;;;;;;1.73;0.60;;;;;;;14.52;100.00;93324.38;4927618;29;20024;-82
2023/06/17 05:50:47;;;;;;;2.85;0.60;;;;;;;14.48;100.00;93330.78;4928345;29;20028;-81
2023/06/17 05:53:12;;;;;;;1.38;0.65;;;;;;;14.54;100.00;93332.06;4927446;29;20109;-83
2023/06/17 05:55:38;;;;;;;1.38;0.55;;;;;;;14.45;100.00;93332.28;4926033;29;20038;-82
2023/06/17 05:58:03;;;;;;;3.50;0.50;;;;;;;14.48;100.00;93336.16;4927118;29;20028;-82
2023/06/17 06:00:29;;;;;;;1.42;0.45;;;;;;;14.41;100.00;93331.41;4927336;29;20035;-82
2023/06/17 06:02:54;;;;;;;0.93;0.50;;;;;;;14.39;100.00;93333.66;4927342;29;20043;-81
2023/06/17 06:05:20;;;;;;;1.08;0.50;;;;;;;14.35;100.00;93338.16;4910194;29;20333;-81
2023/06/17 06:07:45;;;;;;;0.35;0.30;;;;;;;14.33;100.00;93327.00;4926722;29;20024;-81
2023/06/17 06:10:11;;;;;;;1.83;0.40;;;;;;;14.41;100.00;93326.03;4926873;29;20031;-81
2023/06/17 06:12:37;;;;;;;1.65;1.17;;;;;;;14.33;100.00;93322.44;4926468;29;20075;-81
2023/06/17 06:15:04;;;;;;;0.70;0.50;;;;;;;14.37;100.00;93325.19;4926592;29;20039;-80
2023/06/17 06:17:30;;;;;;;0.77;0.50;;;;;;;14.33;100.00;93335.84;4926370;29;20040;-80
2023/06/17 06:19:55;;;;;;;0.30;0.30;;;;;;;14.42;100.00;93338.31;4926708;29;20338;-80
2023/06/17 06:22:21;;;;;;;1.75;0.50;;;;;;;14.41;100.00;93334.06;4926653;29;20043;-79
2023/06/17 06:24:46;;;;;;;0.77;0.35;;;;;;;14.44;100.00;93342.22;4926088;29;20357;-80
2023/06/17 06:27:12;;;;;;;0.60;0.40;;;;;;;14.50;100.00;93344.63;4909424;29;20028;-80
2023/06/17 06:29:37;;;;;;;0.30;0.30;;;;;;;14.56;100.00;93360.13;4926340;29;20035;-81
2023/06/17 06:32:03;;;;;;;0.73;0.45;;;;;;;14.59;100.00;93348.72;4909654;29;20230;-81
2023/06/17 06:34:28;;;;;;;1.20;0.47;;;;;;;14.63;100.00;93354.13;4929551;29;20250;-81
2023/06/17 06:36:56;;;;;;;1.55;0.50;;;;;;;14.69;100.00;93351.94;4930116;29;20352;-81
2023/06/17 06:39:22;;;;;;;2.15;0.47;;;;;;;14.66;98.89;93353.44;4930020;29;20036;-81
2023/06/17 06:41:48;;;;;;;0.93;0.43;;;;;;;14.73;99.76;93358.16;4930151;29;20027;-82
2023/06/17 06:44:13;;;;;;;0.55;0.38;;;;;;;14.72;99.73;93362.00;4930239;29;20118;-81
2023/06/17 06:46:38;;;;;;;3.50;0.80;;;;;;;14.73;100.00;93361.63;4929790;29;20042;-82
2023/06/17 06:49:04;;;;;;;0.80;0.50;;;;;;;14.78;100.00;93353.31;4930436;29;20091;-80
2023/06/17 06:51:29;;;;;;;0.45;0.30;;;;;;;14.83;99.04;93354.94;4930334;29;20070;-81
2023/06/17 06:53:55;;;;;;;11.13;0.95;;;;;;;14.90;100.00;93349.72;4930012;29;20035;-82
2023/06/17 06:56:21;;;;;;;1.48;0.77;;;;;;;14.98;100.00;93356.78;4930345;29;20112;-80
2023/06/17 06:58:47;;;;;;;0.95;0.43;;;;;;;15.05;99.59;93358.84;4929782;29;20036;-81
2023/06/17 07:01:13;;;;;;;0.60;0.50;;;;;;;15.18;99.01;93357.56;4930065;29;20035;-86
2023/06/17 07:03:39;;;;;;;1.08;0.50;;;;;;;15.18;97.61;93348.72;4913036;29;20039;-87
2023/06/17 07:06:05;;;;;;;0.88;0.55;;;;;;;15.11;97.00;93338.63;4929735;29;20035;-87
2023/06/17 07:08:30;;;;;;;2.70;0.60;;;;;;;15.22;98.60;93333.47;4913145;29;20095;-88
2023/06/17 07:10:56;;;;;;;0.60;0.40;;;;;;;15.11;97.44;93341.31;4912565;29;20217;-85
2023/06/17 07:13:21;;;;;;;1.13;0.40;;;;;;;15.15;96.97;93346.75;4929859;29;20027;-88
2023/06/17 07:15:47;;;;;;;1.02;0.60;;;;;;;15.22;97.72;93346.88;4929595;29;20263;-88
2023/06/17 07:18:13;;;;;;;2.33;0.70;;;;;;;15.22;98.15;93345.00;4929261;29;20298;-87
2023/06/17 07:20:38;;;;;;;1.23;0.60;;;;;;;15.20;98.06;93343.78;4929192;29;20028;-86
2023/06/17 07:23:04;;;;;;;0.68;0.47;;;;;;;15.23;98.32;93353.81;4929273;29;20028;-87
2023/06/17 07:25:29;;;;;;;1.00;0.65;;;;;;;15.23;97.91;93348.47;4912632;29;20027;-87
2023/06/17 07:27:56;;;;;;;1.00;0.57;;;;;;;15.24;98.05;93347.31;4912446;29;20251;-84
2023/06/17 07:30:22;;;;;;;1.38;0.60;;;;;;;15.17;98.30;93357.94;4929291;29;20095;-86
2023/06/17 07:32:48;;;;;;;1.48;0.70;;;;;;;15.20;98.23;93354.53;4929050;29;20083;-87
2023/06/17 07:35:13;;;;;;;1.48;0.68;;;;;;;15.16;98.51;93351.00;4929110;29;20032;-84
2023/06/17 07:37:39;;;;;;;2.03;0.68;;;;;;;15.24;98.94;93353.47;4928753;29;20044;-80
2023/06/17 07:40:06;;;;;;;1.25;0.50;;;;;;;15.39;99.92;93353.75;4929035;29;20032;-84
2023/06/17 07:42:31;;;;;;;2.88;0.70;;;;;;;15.45;98.68;93363.06;4911827;29;20103;-83
2023/06/17 07:44:57;;;;;;;1.13;0.50;;;;;;;15.56;97.39;93366.72;4927743;29;20234;-82
2023/06/17 07:47:23;;;;;;;1.70;0.60;;;;;;;15.63;96.72;93364.16;4911952;29;20059;-83
2023/06/17 07:49:49;;;;;;;0.82;0.60;;;;;;;15.76;97.80;93364.78;4928693;29;20027;-85
2023/06/17 07:52:14;;;;;;;0.73;0.38;;;;;;;15.79;95.30;93369.47;4911753;29;20195;-84
2023/06/17 07:54:41;;;;;;;1.73;0.50;;;;;;;15.95;94.92;93372.03;4928462;29;20075;-89
2023/06/17 07:57:06;;;;;;;0.63;0.40;;;;;;;16.07;93.95;93367.63;4928451;29;20027;-85
2023/06/17 07:59:32;;;;;;;1.35;0.65;;;;;;;16.24;93.75;93373.28;4928705;29;20024;-86
2023/06/17 08:01:58;;;;;;;1.00;0.55;;;;;;;16.31;92.47;93383.38;4928519;29;20028;-87
2023/06/17 08:04:23;;;;;;;0.77;0.50;;;;;;;16.34;89.59;93376.47;4927338;29;20099;-84
2023/06/17 08:06:49;;;;;;;0.55;0.40;;;;;;;16.32;90.92;93384.13;4928362;29;20032;-83
2023/06/17 08:09:14;;;;;;;0.50;0.40;;;;;;;16.31;90.44;93377.22;4928385;29;20036;-83
2023/06/17 08:11:40;;;;;;;1.08;0.60;;;;;;;16.21;90.08;93381.28;4928410;29;20028;-83
2023/06/17 08:14:05;;;;;;;3.05;0.55;;;;;;;16.28;91.76;93384.06;4911352;29;20306;-83
2023/06/17 08:16:31;;;;;;;0.70;0.40;;;;;;;16.32;91.74;93379.53;4911355;29;20016;-83
2023/06/17 08:18:56;;;;;;;2.83;0.80;;;;;;;16.37;92.52;93386.53;4927785;29;20032;-83
2023/06/17 08:21:22;;;;;;;2.03;0.63;;;;;;;16.47;92.33;93385.91;4928302;29;20020;-84
2023/06/17 08:23:50;;;;;;;2.70;0.63;;;;;;;16.45;91.73;93385.50;4911232;29;20075;-84
2023/06/17 08:26:15;;;;;;;3.75;0.60;;;;;;;16.44;91.27;93392.81;4911238;29;20028;-84
2023/06/17 08:28:41;;;;;;;1.75;0.70;;;;;;;16.31;92.07;93394.13;4927890;29;20091;-83
2023/06/17 08:31:06;;;;;;;0.93;0.70;;;;;;;16.34;93.70;93387.25;4927956;29;20396;-87
2023/06/17 08:33:44;;;;;;;0.93;0.60;;;;;;;16.19;93.62;93378.94;4928251;29;20318;-86
2023/06/17 08:36:10;;;;;;;1.50;0.90;;;;;;;16.11;95.03;93385.34;4910863;29;20107;-87
2023/06/17 08:38:36;;;;;;;1.65;0.80;;;;;;;16.22;95.36;93391.69;4927563;29;20032;-83
2023/06/17 08:41:01;;;;;;;1.05;0.55;;;;;;;16.16;95.43;93400.38;4910887;29;20195;-83
2023/06/17 08:43:28;;;;;;;1.65;1.05;;;;;;;16.12;94.99;93396.88;4927795;29;20094;-83
2023/06/17 08:45:55;;;;;;;1.73;0.88;;;;;;;16.17;95.99;93394.66;4927805;29;20095;-84
2023/06/17 08:48:20;;;;;;;1.55;0.85;;;;;;;16.13;95.48;93388.44;4910609;29;20195;-83
2023/06/17 08:50:47;;;;;;;4.38;0.80;;;;;;;16.14;95.56;93381.94;4910748;29;20031;-84
2023/06/17 08:53:15;;;;;;;2.05;0.90;;;;;;;16.23;96.48;93384.38;4927558;29;20024;-84
2023/06/17 08:55:42;;;;;;;2.30;1.27;;;;;;;16.20;97.83;93391.28;4910545;29;20024;-83
2023/06/17 08:58:08;;;;;;;1.88;0.98;;;;;;;16.15;95.44;93394.25;4927132;29;20043;-83
2023/06/17 09:00:36;;;;;;;1.38;0.75;;;;;;;16.16;96.01;93386.94;4927253;29;20028;-83
2023/06/17 09:03:07;;;;;;;1.95;1.10;;;;;;;16.13;96.36;93387.69;4927107;29;20058;-82
2023/06/17 09:05:33;;;;;;;1.80;1.10;;;;;;;16.19;97.01;93380.88;4927324;29;20024;-83
2023/06/17 09:07:58;;;;;;;2.22;1.13;;;;;;;16.02;96.88;93387.50;4927259;29;20016;-83
2023/06/17 09:10:23;;;;;;;5.18;1.13;;;;;;;16.06;97.31;93393.72;4927535;29;20314;-83
2023/06/17 09:12:49;;;;;;;1.80;0.95;;;;;;;16.08;97.55;93375.31;4927033;29;20024;-87
2023/06/17 09:15:16;;;;;;;1.88;1.10;;;;;;;16.07;97.48;93387.19;4927271;29;20040;-87
2023/06/17 09:17:44;;;;;;;3.78;1.42;;;;;;;16.02;97.75;93385.59;4926954;29;20044;-85
2023/06/17 09:20:15;;;;;;;1.90;1.30;;;;;;;16.11;98.17;93382.66;4927008;29;20107;-85
2023/06/17 09:22:43;;;;;;;1.92;1.30;;;;;;;16.14;99.29;93379.25;4926978;29;20095;-85
2023/06/17 09:25:14;;;;;;;2.20;1.50;;;;;;;16.23;99.34;93381.69;4926987;29;20236;-85
2023/06/17 09:27:54;;;;;;;2.60;1.50;;;;;;;16.28;97.51;93388.69;4926927;29;20020;-90
2023/06/17 09:30:22;;;;;;;2.28;1.10;;;;;;;16.24;98.04;93384.03;4910820;29;20024;-90
2023/06/17 09:32:51;;;;;;;1.98;1.40;;;;;;;16.32;97.58;93381.44;4927281;29;20020;-86
2023/06/17 09:35:18;;;;;;;4.30;1.30;;;;;;;16.33;96.69;93383.00;4927639;29;20203;-91
2023/06/17 09:37:53;;;;;;;3.45;1.52;;;;;;;16.44;95.91;93387.44;4927527;29;20040;-88
2023/06/17 09:40:28;;;;;;;2.10;1.17;;;;;;;16.50;95.94;93384.41;4927577;29;20351;-90
2023/06/17 09:42:53;;;;;;;2.75;1.88;;;;;;;16.60;96.57;93389.19;4927486;29;20423;-84
2023/06/17 09:45:24;;;;;;;2.13;1.02;;;;;;;16.64;93.97;93396.16;4927692;29;20036;-88
2023/06/17 09:47:53;;;;;;;2.05;1.25;;;;;;;16.65;94.01;93381.56;4927188;29;20035;-84
2023/06/17 09:50:20;;;;;;;2.08;1.17;;;;;;;16.74;95.02;93386.69;4926818;29;20028;-83
2023/06/17 09:52:48;;;;;;;3.50;0.93;;;;;;;16.72;91.50;93393.56;4926644;29;20048;-92
2023/06/17 09:55:14;;;;;;;1.85;1.35;;;;;;;16.76;93.78;93394.41;4927229;29;20043;-85
2023/06/17 09:57:43;;;;;;;1.85;0.80;;;;;;;16.67;92.82;93389.28;4926641;29;20109;-87
2023/06/17 10:00:10;;;;;;;1.75;0.90;;;;;;;16.69;94.28;93399.66;4927955;29;20032;-90
2023/06/17 10:02:38;;;;;;;2.38;0.98;;;;;;;16.75;93.34;93395.53;4926578;29;20226;-87
2023/06/17 10:05:03;;;;;;;1.70;1.10;;;;;;;16.61;92.81;93391.50;4926895;29;20228;-90
2023/06/17 10:07:29;;;;;;;1.63;0.95;;;;;;;16.60;91.99;93394.56;4926800;29;20020;-85
2023/06/17 10:09:56;;;;;;;1.92;0.82;;;;;;;16.56;92.39;93407.94;4930718;29;20094;-89
2023/06/17 10:12:24;;;;;;;2.10;0.65;;;;;;;16.49;92.72;93405.16;4931819;29;20020;-90
2023/06/17 10:14:51;;;;;;;1.30;0.60;;;;;;;16.52;93.10;93409.03;4930670;29;20031;-88
2023/06/17 10:17:20;;;;;;;1.10;0.65;;;;;;;16.52;93.94;93407.13;4930661;29;20049;-88
2023/06/17 10:19:47;;;;;;;2.78;0.95;;;;;;;16.51;91.93;93402.88;4930989;29;20290;-87
2023/06/17 10:22:16;;;;;;;1.58;0.60;;;;;;;16.50;92.93;93414.00;4930543;29;20039;-87
2023/06/17 10:24:42;;;;;;;1.02;0.55;;;;;;;16.48;93.53;93419.75;4913501;29;20101;-85
2023/06/17 10:27:08;;;;;;;0.90;0.50;;;;;;;16.48;93.12;93422.44;4929982;29;20095;-79
2023/06/17 10:29:33;;;;;;;2.03;0.90;;;;;;;16.53;94.05;93421.38;4929806;29;20023;-79
2023/06/17 10:32:25;;;;;;;1.58;0.80;;;;;;;16.50;93.18;93414.78;4929802;29;20314;-79
2023/06/17 10:35:06;;;;;;;1.30;0.80;;;;;;;16.48;93.31;93417.03;4929936;29;20063;-79
2023/06/17 10:37:37;;;;;;;2.08;0.70;;;;;;;16.49;93.02;93418.63;4929541;29;20048;-79
2023/06/17 10:40:26;;;;;;;2.95;1.00;;;;;;;16.56;93.75;93418.72;4929647;29;20028;-79
2023/06/17 10:42:57;;;;;;;1.23;0.57;;;;;;;16.61;93.97;93418.41;4929977;29;20059;-80
2023/06/17 10:45:24;;;;;;;1.98;0.70;;;;;;;16.63;92.92;93420.75;4929978;29;20320;-79
2023/06/17 10:47:49;;;;;;;1.65;0.63;;;;;;;16.63;93.43;93416.13;4929807;29;20280;-79
2023/06/17 10:50:19;;;;;;;2.80;0.82;;;;;;;16.71;93.23;93416.22;4929600;29;20038;-79
2023/06/17 10:52:45;;;;;;;4.10;0.70;;;;;;;16.69;93.54;93421.19;4929887;29;20483;-80
2023/06/17 10:55:13;;;;;;;1.63;0.77;;;;;;;16.68;93.36;93430.41;4929674;29;20020;-80
2023/06/17 10:57:38;;;;;;;5.43;1.55;;;;;;;16.67;92.24;93426.97;4929522;29;20043;-79
2023/06/17 11:00:10;;;;;;;6.15;1.02;;;;;;;16.61;92.97;93425.72;4929929;29;20333;-78
2023/06/17 11:02:37;;;;;;;2.08;0.82;;;;;;;16.63;92.69;93429.59;4929487;29;20239;-77
2023/06/17 11:05:06;;;;;;;2.60;1.15;;;;;;;16.67;93.38;93424.28;4930587;29;20284;-81
2023/06/17 11:07:32;;;;;;;2.20;1.20;;;;;;;16.68;94.36;93433.13;4912888;29;20034;-86
2023/06/17 11:09:57;;;;;;;5.50;1.92;;;;;;;16.59;92.94;93433.38;4931862;29;20044;-92
2023/06/17 11:12:23;;;;;;;2.58;1.50;;;;;;;16.40;93.92;93424.22;4931263;29;20303;-83
2023/06/17 11:14:48;;;;;;;3.40;2.40;;;;;;;16.32;93.79;93429.84;4932673;29;20032;-92
2023/06/17 11:17:14;;;;;;;7.22;1.75;;;;;;;16.25;92.95;93433.97;4932029;29;20225;-82
2023/06/17 11:19:39;;;;;;;10.50;2.70;;;;;;;16.19;94.92;93430.03;4929966;29;20218;-85
2023/06/17 11:22:07;;;;;;;10.63;2.70;;;;;;;16.19;95.09;93435.41;4930070;29;20052;-86
2023/06/17 11:24:34;;;;;;;4.75;2.28;;;;;;;16.04;93.04;93433.63;4910513;29;20036;-87
2023/06/17 11:27:01;;;;;;;4.35;1.85;;;;;;;15.96;94.60;93434.63;4929607;29;20338;-86
2023/06/17 11:29:27;;;;;;;3.53;1.67;;;;;;;15.86;95.38;93429.84;4928115;29;20359;-86